Time;durP1;ratioP1;P1;durP2;ratioP2;P2;SDS_P1;SDS_P2;PMS_P1;PMS_P2;Temp;Humidity;BMP_temperature;BMP_pressure;BME280_temperature;BME280_humidity;BME280_pressure;Samples;Min_cycle;Max_cycle;Signal;HPM_P1;HPM_P2
2021/10/11 00:01:29;;;;;;;;;;;8.20;99.90;;;;;;4905897;29;19931;-65
2021/10/11 00:04:18;;;;;;;;;;;8.20;99.90;;;;;;4912147;29;19999;-65
2021/10/11 00:07:08;;;;;;;;;;;8.20;99.90;;;;;;4915732;29;19937;-66
2021/10/11 00:09:57;;;;;;;;;;;8.10;99.90;;;;;;4911218;29;19927;-65
2021/10/11 00:12:48;;;;;;;;;;;8.10;99.90;;;;;;4912185;29;20279;-65
2021/10/11 00:15:38;;;;;;;;;;;8.00;99.90;;;;;;4911086;29;19931;-66
2021/10/11 00:18:26;;;;;;;;;;;7.90;99.90;;;;;;4916836;29;19927;-65
2021/10/11 00:21:15;;;;;;;;;;;7.90;99.90;;;;;;4912479;29;20366;-65
2021/10/11 00:24:04;;;;;;;;;;;7.80;99.90;;;;;;4910509;29;20256;-65
2021/10/11 00:26:53;;;;;;;;;;;7.80;99.90;;;;;;4912549;29;20082;-65
2021/10/11 00:29:43;;;;;;;;;;;7.70;99.90;;;;;;4913068;29;19928;-65
2021/10/11 00:32:32;;;;;;;;;;;7.60;99.90;;;;;;4911532;29;20299;-66
2021/10/11 00:35:21;;;;;;;;;;;7.60;99.90;;;;;;4910343;29;20013;-65
2021/10/11 00:38:09;;;;;;;;;;;7.60;99.90;;;;;;4913182;29;20042;-64
2021/10/11 00:40:59;;;;;;;;;;;7.60;99.90;;;;;;4914765;29;19933;-65
2021/10/11 00:43:49;;;;;;;;;;;7.60;99.90;;;;;;4917293;29;19946;-65
2021/10/11 00:46:40;;;;;;;;;;;7.60;99.90;;;;;;4909492;29;20283;-64
2021/10/11 00:49:29;;;;;;;;;;;7.60;99.90;;;;;;4905116;29;19953;-65
2021/10/11 00:52:18;;;;;;;;;;;7.60;99.90;;;;;;4913229;28;19991;-65
2021/10/11 00:55:08;;;;;;;;;;;7.60;99.90;;;;;;4918775;29;20376;-65
2021/10/11 00:57:56;;;;;;;;;;;7.50;99.90;;;;;;4914007;29;19927;-66
2021/10/11 01:00:45;;;;;;;;;;;7.50;99.90;;;;;;4913255;29;19935;-65
2021/10/11 01:03:37;;;;;;;;;;;7.50;99.90;;;;;;4913895;29;19933;-66
2021/10/11 01:06:26;;;;;;;;;;;7.50;99.90;;;;;;4916399;29;20029;-65
2021/10/11 01:09:15;;;;;;;;;;;7.50;99.90;;;;;;4906233;29;20018;-65
2021/10/11 01:12:04;;;;;;;;;;;7.50;99.90;;;;;;4919443;29;20040;-64
2021/10/11 01:14:53;;;;;;;;;;;7.40;99.90;;;;;;4918243;29;19934;-65
2021/10/11 01:17:42;;;;;;;;;;;7.40;99.90;;;;;;4918459;29;19930;-65
2021/10/11 01:20:56;;;;;;;;;;;7.30;99.90;;;;;;4917051;28;19935;-65
2021/10/11 01:23:47;;;;;;;;;;;7.20;99.90;;;;;;4900606;29;20006;-65
2021/10/11 01:26:36;;;;;;;;;;;7.20;99.90;;;;;;4915187;29;19927;-65
2021/10/11 01:29:25;;;;;;;;;;;7.20;99.90;;;;;;4917155;29;20273;-65
2021/10/11 01:32:14;;;;;;;;;;;7.20;99.90;;;;;;4909750;29;19953;-65
2021/10/11 01:35:02;;;;;;;;;;;7.20;99.90;;;;;;4916967;29;20026;-65
2021/10/11 01:37:53;;;;;;;;;;;7.30;99.90;;;;;;4922466;29;19935;-64
2021/10/11 01:40:53;;;;;;;;;;;7.30;99.90;;;;;;4917909;29;19941;-65
2021/10/11 01:43:42;;;;;;;;;;;7.30;99.90;;;;;;4917688;29;19961;-65
2021/10/11 01:46:31;;;;;;;;;;;7.30;99.90;;;;;;4912236;29;19938;-65
2021/10/11 01:49:22;;;;;;;;;;;7.30;99.90;;;;;;4913438;29;20041;-64
2021/10/11 01:52:11;;;;;;;;;;;7.30;99.90;;;;;;4914843;29;19943;-65
2021/10/11 01:55:00;;;;;;;;;;;7.30;99.90;;;;;;4913276;29;19945;-66
2021/10/11 01:57:51;;;;;;;;;;;7.30;99.90;;;;;;4914005;29;20303;-64
2021/10/11 02:00:40;;;;;;;;;;;7.30;99.90;;;;;;4905847;29;19939;-65
2021/10/11 02:03:28;;;;;;;;;;;7.30;99.90;;;;;;4915427;29;19977;-65
2021/10/11 02:06:17;;;;;;;;;;;7.30;99.90;;;;;;4923279;29;20359;-65
2021/10/11 02:09:06;;;;;;;;;;;7.20;99.90;;;;;;4928156;28;19927;-65
2021/10/11 02:11:55;;;;;;;;;;;7.10;99.90;;;;;;4925563;28;20358;-65
2021/10/11 02:14:47;;;;;;;;;;;7.10;99.90;;;;;;4922121;28;19927;-66
2021/10/11 02:17:36;;;;;;;;;;;7.10;99.90;;;;;;4914350;29;19927;-66
2021/10/11 02:20:25;;;;;;;;;;;7.10;99.90;;;;;;4909588;29;20147;-65
2021/10/11 02:23:40;;;;;;;;;;;7.00;99.90;;;;;;4914185;29;19931;-65
2021/10/11 02:26:28;;;;;;;;;;;7.00;99.90;;;;;;4919741;29;19971;-65
2021/10/11 02:29:18;;;;;;;;;;;7.00;99.90;;;;;;4916833;29;19927;-65
2021/10/11 02:32:08;;;;;;;;;;;6.90;99.90;;;;;;4907543;29;20356;-66
2021/10/11 02:34:57;;;;;;;;;;;6.90;99.90;;;;;;4918698;29;19927;-65
2021/10/11 02:40:59;;;;;;;;;;;6.90;99.90;;;;;;4909695;29;20093;-64
2021/10/11 02:43:48;;;;;;;;;;;7.00;99.90;;;;;;4911591;29;19928;-67
2021/10/11 02:46:37;;;;;;;;;;;7.00;99.90;;;;;;4909727;29;19934;-66
2021/10/11 02:49:27;;;;;;;;;;;6.90;99.90;;;;;;4914732;29;20014;-64
2021/10/11 02:52:16;;;;;;;;;;;6.90;99.90;;;;;;4913696;29;19927;-65
2021/10/11 02:55:06;;;;;;;;;;;6.80;99.90;;;;;;4911034;29;19927;-65
2021/10/11 02:57:54;;;;;;;;;;;6.80;99.90;;;;;;4918444;29;20390;-65
2021/10/11 03:00:43;;;;;;;;;;;6.80;99.90;;;;;;4901550;29;20002;-65
2021/10/11 03:03:32;;;;;;;;;;;6.70;99.90;;;;;;4914018;29;19954;-66
2021/10/11 03:06:22;;;;;;;;;;;6.70;99.90;;;;;;4913726;29;19927;-64
2021/10/11 03:09:16;;;;;;;;;;;6.60;99.90;;;;;;4912548;29;19975;-65
2021/10/11 03:12:04;;;;;;;;;;;6.60;99.90;;;;;;4908757;29;20026;-64
2021/10/11 03:14:53;;;;;;;;;;;6.60;99.90;;;;;;4913946;29;19935;-65
2021/10/11 03:17:42;;;;;;;;;;;6.60;99.90;;;;;;4912062;29;20352;-65
2021/10/11 03:23:49;;;;;;;;;;;6.60;99.90;;;;;;4918132;29;19950;-65
2021/10/11 03:26:38;;;;;;;;;;;6.60;99.90;;;;;;4915102;29;19927;-64
2021/10/11 03:29:26;;;;;;;;;;;6.60;99.90;;;;;;4911458;29;19927;-65
2021/10/11 03:32:15;;;;;;;;;;;6.50;99.90;;;;;;4908001;29;19994;-65
2021/10/11 03:35:04;;;;;;;;;;;6.60;99.90;;;;;;4911186;29;19931;-64
2021/10/11 03:37:53;;;;;;;;;;;6.60;99.90;;;;;;4914959;29;19962;-64
2021/10/11 03:40:44;;;;;;;;;;;6.60;99.90;;;;;;4916955;29;19927;-65
2021/10/11 03:43:33;;;;;;;;;;;6.60;99.90;;;;;;4916415;29;19978;-66
2021/10/11 03:46:22;;;;;;;;;;;6.60;99.90;;;;;;4910786;29;19954;-65
2021/10/11 03:49:11;;;;;;;;;;;6.60;99.90;;;;;;4920745;29;19931;-65
2021/10/11 03:52:00;;;;;;;;;;;6.60;99.90;;;;;;4917192;29;19933;-65
2021/10/11 03:54:49;;;;;;;;;;;6.60;99.90;;;;;;4912800;29;19967;-66
2021/10/11 03:57:39;;;;;;;;;;;6.70;99.90;;;;;;4905918;29;19935;-66
2021/10/11 04:00:32;;;;;;;;;;;6.60;99.90;;;;;;4919069;29;19934;-66
2021/10/11 04:03:22;;;;;;;;;;;6.60;99.90;;;;;;4915513;29;19962;-66
2021/10/11 04:06:11;;;;;;;;;;;6.60;99.90;;;;;;4915121;29;20342;-65
2021/10/11 04:09:00;;;;;;;;;;;6.50;99.90;;;;;;4918022;28;20059;-65
2021/10/11 04:11:51;;;;;;;;;;;6.40;99.90;;;;;;4918205;29;19934;-65
2021/10/11 04:14:41;;;;;;;;;;;6.30;99.90;;;;;;4917188;28;19927;-65
2021/10/11 04:17:30;;;;;;;;;;;6.40;99.90;;;;;;4920066;29;19938;-66
2021/10/11 04:20:18;;;;;;;;;;;6.30;99.90;;;;;;4923979;29;19927;-65
2021/10/11 04:23:07;;;;;;;;;;;6.30;99.90;;;;;;4906922;29;20395;-65
2021/10/11 04:25:56;;;;;;;;;;;6.20;99.90;;;;;;4914825;28;19926;-65
2021/10/11 04:28:45;;;;;;;;;;;6.20;99.90;;;;;;4918707;29;19934;-66
2021/10/11 04:31:35;;;;;;;;;;;6.20;99.90;;;;;;4925148;28;19946;-66
2021/10/11 04:34:24;;;;;;;;;;;6.20;99.90;;;;;;4927201;29;19931;-65
2021/10/11 04:37:13;;;;;;;;;;;6.20;99.90;;;;;;4913066;29;20384;-66
2021/10/11 04:40:02;;;;;;;;;;;6.10;99.90;;;;;;4914633;29;19927;-65
2021/10/11 04:42:51;;;;;;;;;;;6.10;99.90;;;;;;4924985;29;20029;-65
2021/10/11 04:46:09;;;;;;;;;;;6.20;99.90;;;;;;4915986;29;19927;-66
2021/10/11 04:48:59;;;;;;;;;;;6.20;99.90;;;;;;4911465;29;19935;-65
2021/10/11 04:51:48;;;;;;;;;;;6.10;99.90;;;;;;4917370;29;19928;-65
2021/10/11 04:54:37;;;;;;;;;;;6.00;99.90;;;;;;4918863;29;20384;-67
2021/10/11 04:57:25;;;;;;;;;;;6.00;99.90;;;;;;4919888;29;19931;-64
2021/10/11 05:00:15;;;;;;;;;;;5.90;99.90;;;;;;4913507;29;19931;-65
2021/10/11 05:03:04;;;;;;;;;;;5.90;99.90;;;;;;4916028;29;20348;-67
2021/10/11 05:05:54;;;;;;;;;;;5.90;99.90;;;;;;4906803;29;19934;-65
2021/10/11 05:08:43;;;;;;;;;;;5.80;99.90;;;;;;4926024;29;19931;-65
2021/10/11 05:11:32;;;;;;;;;;;5.80;99.90;;;;;;4914254;29;19937;-65
2021/10/11 05:14:21;;;;;;;;;;;5.80;99.90;;;;;;4927555;29;20035;-64
2021/10/11 05:17:10;;;;;;;;;;;5.90;99.90;;;;;;4909824;29;20408;-65
2021/10/11 05:19:58;;;;;;;;;;;5.90;99.90;;;;;;4910922;29;19938;-64
2021/10/11 05:22:48;;;;;;;;;;;5.90;99.90;;;;;;4918727;29;19928;-65
2021/10/11 05:25:37;;;;;;;;;;;6.00;99.90;;;;;;4915161;29;19935;-64
2021/10/11 05:28:25;;;;;;;;;;;6.10;99.90;;;;;;4916191;29;19938;-63
2021/10/11 05:31:18;;;;;;;;;;;6.10;99.90;;;;;;4932811;23;20177;-76
2021/10/11 05:34:07;;;;;;;;;;;6.10;99.90;;;;;;4947322;23;19933;-76
2021/10/11 05:36:56;;;;;;;;;;;6.10;99.90;;;;;;4930699;29;20033;-75
2021/10/11 05:39:47;;;;;;;;;;;6.10;99.90;;;;;;4927225;29;19926;-73
2021/10/11 05:42:36;;;;;;;;;;;6.00;99.90;;;;;;4934233;29;20287;-74
2021/10/11 05:45:25;;;;;;;;;;;6.10;99.90;;;;;;4939600;28;19927;-73
2021/10/11 05:48:39;;;;;;;;;;;6.10;99.90;;;;;;4941675;28;19927;-73
2021/10/11 05:51:29;;;;;;;;;;;6.10;99.90;;;;;;4941756;29;19927;-73
2021/10/11 05:54:17;;;;;;;;;;;6.20;99.90;;;;;;4943346;29;19926;-73
2021/10/11 05:57:07;;;;;;;;;;;6.20;99.90;;;;;;4938686;29;19927;-72
2021/10/11 05:59:55;;;;;;;;;;;6.30;99.90;;;;;;4927208;29;19934;-73
2021/10/11 06:05:58;;;;;;;;;;;6.30;99.90;;;;;;4956309;28;19982;-72
2021/10/11 06:08:47;;;;;;;;;;;6.30;99.90;;;;;;4954474;29;20009;-73
2021/10/11 06:11:39;;;;;;;;;;;6.30;99.90;;;;;;4939833;29;19927;-71
2021/10/11 06:14:31;;;;;;;;;;;6.30;99.90;;;;;;4952467;28;20200;-72
2021/10/11 06:17:20;;;;;;;;;;;6.30;99.90;;;;;;4942486;28;19927;-73
2021/10/11 06:20:10;;;;;;;;;;;6.30;99.90;;;;;;4931212;28;19934;-73
2021/10/11 06:22:59;;;;;;;;;;;6.30;99.90;;;;;;4942491;29;19926;-73
2021/10/11 06:25:48;;;;;;;;;;;6.30;99.90;;;;;;4935579;29;19934;-74
2021/10/11 06:31:52;;;;;;;;;;;6.40;99.90;;;;;;4941261;28;20452;-73
2021/10/11 06:34:42;;;;;;;;;;;6.40;99.90;;;;;;4942883;28;19934;-74
2021/10/11 06:37:30;;;;;;;;;;;6.50;99.90;;;;;;4924648;29;20061;-74
2021/10/11 06:40:19;;;;;;;;;;;6.60;99.90;;;;;;4926166;29;20022;-74
2021/10/11 06:43:19;;;;;;;;;;;6.60;99.90;;;;;;4938242;29;20298;-75
2021/10/11 06:46:09;;;;;;;;;;;6.60;99.90;;;;;;4940168;28;19926;-74
2021/10/11 06:48:59;;;;;;;;;;;6.60;99.90;;;;;;4936901;29;20376;-75
2021/10/11 06:51:48;;;;;;;;;;;6.70;99.90;;;;;;4936982;29;20035;-74
2021/10/11 06:54:36;;;;;;;;;;;6.70;99.90;;;;;;4930725;29;19937;-74
2021/10/11 06:57:24;;;;;;;;;;;6.80;99.90;;;;;;4940355;29;21499;-74
2021/10/11 07:00:14;;;;;;;;;;;6.80;99.90;;;;;;4931741;29;19933;-74
2021/10/11 07:03:27;;;;;;;;;;;6.90;99.90;;;;;;4935644;29;20399;-75
2021/10/11 07:06:20;;;;;;;;;;;6.90;99.90;;;;;;4926664;28;20495;-74
2021/10/11 07:09:09;;;;;;;;;;;7.00;99.90;;;;;;4938465;29;19933;-73
2021/10/11 07:11:59;;;;;;;;;;;7.00;99.90;;;;;;4925349;29;20305;-74
2021/10/11 07:14:48;;;;;;;;;;;7.10;99.90;;;;;;4940725;29;19930;-77
2021/10/11 07:17:37;;;;;;;;;;;7.10;99.90;;;;;;4934412;29;19926;-76
2021/10/11 07:20:26;;;;;;;;;;;7.20;99.90;;;;;;4933909;29;19927;-70
2021/10/11 07:23:16;;;;;;;;;;;7.20;99.90;;;;;;4934533;29;19927;-72
2021/10/11 07:26:10;;;;;;;;;;;7.30;99.90;;;;;;4936096;29;19927;-72
2021/10/11 07:28:59;;;;;;;;;;;7.30;99.90;;;;;;4930818;29;19927;-73
2021/10/11 07:31:48;;;;;;;;;;;7.40;99.90;;;;;;4931870;28;19931;-73
2021/10/11 07:34:37;;;;;;;;;;;7.50;99.90;;;;;;4935145;29;19927;-72
2021/10/11 07:37:26;;;;;;;;;;;7.50;99.90;;;;;;4932492;29;19934;-73
2021/10/11 07:40:16;;;;;;;;;;;7.60;99.90;;;;;;4935057;29;19927;-70
2021/10/11 07:46:18;;;;;;;;;;;7.70;99.90;;;;;;4933851;28;19933;-69
2021/10/11 07:49:09;;;;;;;;;;;7.80;99.90;;;;;;4935844;29;19927;-70
2021/10/11 07:52:21;;;;;;;;;;;7.80;99.90;;;;;;4934931;28;19927;-69
2021/10/11 07:55:17;;;;;;;;;;;7.90;99.90;;;;;;4930429;29;19927;-70
2021/10/11 07:58:06;;;;;;;;;;;7.90;99.90;;;;;;4930348;29;19935;-70
2021/10/11 08:00:56;;;;;;;;;;;7.90;99.90;;;;;;4927750;29;19933;-70
2021/10/11 08:03:45;;;;;;;;;;;8.00;99.90;;;;;;4930100;29;19927;-70
2021/10/11 08:06:34;;;;;;;;;;;8.00;99.90;;;;;;4935041;29;20248;-70
2021/10/11 08:09:24;;;;;;;;;;;8.00;99.90;;;;;;4921317;29;20038;-69
2021/10/11 08:12:13;;;;;;;;;;;8.00;99.90;;;;;;4934847;29;19937;-69
2021/10/11 08:15:03;;;;;;;;;;;8.20;99.90;;;;;;4939955;28;19932;-70
2021/10/11 08:17:52;;;;;;;;;;;8.20;99.90;;;;;;4934154;29;19927;-69
2021/10/11 08:20:41;;;;;;;;;;;8.30;99.90;;;;;;4916877;29;19927;-69
2021/10/11 08:23:35;;;;;;;;;;;8.40;99.90;;;;;;4928744;29;20363;-69
2021/10/11 08:26:23;;;;;;;;;;;8.50;99.90;;;;;;4932782;29;19927;-71
2021/10/11 08:29:14;;;;;;;;;;;8.60;99.90;;;;;;4929719;29;19927;-69
2021/10/11 08:32:03;;;;;;;;;;;8.70;99.90;;;;;;4932158;28;19927;-69
2021/10/11 08:34:53;;;;;;;;;;;8.80;99.90;;;;;;4924964;29;19979;-69
2021/10/11 08:37:42;;;;;;;;;;;8.90;99.90;;;;;;4912655;29;19976;-70
2021/10/11 08:40:56;;;;;;;;;;;9.00;99.90;;;;;;4908827;29;19935;-70
2021/10/11 08:43:45;;;;;;;;;;;9.10;99.90;;;;;;4916791;29;20433;-70
2021/10/11 08:46:36;;;;;;;;;;;9.10;99.90;;;;;;4898665;29;19931;-70
2021/10/11 08:49:25;;;;;;;;;;;9.20;99.90;;;;;;4912615;29;20034;-69
2021/10/11 08:52:14;;;;;;;;;;;9.30;99.90;;;;;;4911167;29;19946;-69
2021/10/11 08:55:02;;;;;;;;;;;9.30;99.90;;;;;;4908445;29;19928;-72
2021/10/11 08:57:59;;;;;;;;;;;9.50;99.90;;;;;;4913816;29;20392;-73
2021/10/11 09:00:47;;;;;;;;;;;9.60;99.90;;;;;;4911686;29;19950;-70
2021/10/11 09:03:38;;;;;;;;;;;9.70;99.90;;;;;;4920448;29;20022;-71
2021/10/11 09:06:28;;;;;;;;;;;9.80;99.90;;;;;;4904500;29;20291;-72
2021/10/11 09:09:17;;;;;;;;;;;9.90;99.90;;;;;;4916867;29;19934;-70
2021/10/11 09:12:15;;;;;;;;;;;10.00;99.90;;;;;;4915134;28;19927;-71
2021/10/11 09:15:05;;;;;;;;;;;10.10;99.90;;;;;;4918822;29;19969;-71
2021/10/11 09:17:57;;;;;;;;;;;10.20;99.90;;;;;;4914247;29;19927;-72
2021/10/11 09:20:48;;;;;;;;;;;10.30;99.90;;;;;;4912578;29;19927;-70
2021/10/11 09:23:38;;;;;;;;;;;10.30;99.90;;;;;;4906450;29;19930;-71
2021/10/11 09:26:27;;;;;;;;;;;10.40;99.90;;;;;;4924639;29;19927;-71
2021/10/11 09:29:17;;;;;;;;;;;10.50;99.90;;;;;;4916570;29;19927;-71
2021/10/11 09:32:07;;;;;;;;;;;10.50;99.90;;;;;;4915400;28;19927;-71
2021/10/11 09:35:00;;;;;;;;;;;10.60;99.90;;;;;;4934104;29;19931;-72
2021/10/11 09:38:13;;;;;;;;;;;10.60;99.90;;;;;;4928665;28;20287;-71
2021/10/11 09:41:09;;;;;;;;;;;10.70;99.90;;;;;;4929475;29;19927;-71
2021/10/11 09:43:58;;;;;;;;;;;10.80;99.90;;;;;;4931385;29;20418;-71
2021/10/11 09:47:11;;;;;;;;;;;10.80;99.90;;;;;;4933237;29;20286;-71
2021/10/11 09:50:02;;;;;;;;;;;10.90;99.90;;;;;;4935183;29;19930;-70
2021/10/11 09:52:51;;;;;;;;;;;11.00;99.90;;;;;;4937336;29;19927;-71
2021/10/11 09:55:41;;;;;;;;;;;11.00;99.90;;;;;;4924179;29;20268;-71
2021/10/11 09:58:31;;;;;;;;;;;11.10;99.90;;;;;;4933618;29;20398;-70
2021/10/11 10:01:19;;;;;;;;;;;11.20;99.90;;;;;;4930681;28;20347;-71
2021/10/11 10:04:09;;;;;;;;;;;11.30;99.90;;;;;;4937327;29;19998;-71
2021/10/11 10:07:01;;;;;;;;;;;11.40;99.90;;;;;;4936200;29;19930;-71
2021/10/11 10:09:51;;;;;;;;;;;11.40;99.90;;;;;;4924745;29;19927;-71
2021/10/11 10:12:43;;;;;;;;;;;11.50;99.90;;;;;;4918075;29;20026;-71
2021/10/11 10:15:35;;;;;;;;;;;11.60;99.90;;;;;;4932910;29;19934;-71
2021/10/11 10:18:24;;;;;;;;;;;11.60;99.90;;;;;;4930471;29;19938;-71
2021/10/11 10:21:13;;;;;;;;;;;11.70;99.90;;;;;;4923279;29;19933;-71
2021/10/11 10:24:03;;;;;;;;;;;11.70;99.90;;;;;;4919337;29;19927;-70
2021/10/11 10:27:02;;;;;;;;;;;11.80;99.90;;;;;;4938334;28;19926;-70
2021/10/11 10:29:51;;;;;;;;;;;11.80;99.90;;;;;;4933816;28;19937;-71
2021/10/11 10:32:52;;;;;;;;;;;11.80;99.90;;;;;;4936752;29;20009;-70
2021/10/11 10:35:46;;;;;;;;;;;11.90;99.90;;;;;;4908735;29;19931;-70
2021/10/11 10:38:34;;;;;;;;;;;11.90;99.90;;;;;;4914666;29;20018;-70
2021/10/11 10:41:23;;;;;;;;;;;11.90;99.90;;;;;;4912238;29;19927;-71
2021/10/11 10:44:14;;;;;;;;;;;11.90;99.90;;;;;;4914640;29;20288;-69
2021/10/11 10:47:04;;;;;;;;;;;12.00;99.90;;;;;;4915843;28;19927;-70
2021/10/11 10:49:54;;;;;;;;;;;12.10;99.90;;;;;;4903813;29;19935;-70
2021/10/11 10:52:46;;;;;;;;;;;12.10;99.90;;;;;;4918785;29;20303;-71
2021/10/11 10:55:38;;;;;;;;;;;12.20;99.90;;;;;;4915889;29;20444;-70
2021/10/11 10:58:26;;;;;;;;;;;12.30;99.90;;;;;;4916257;29;20405;-69
2021/10/11 11:01:17;;;;;;;;;;;12.30;99.90;;;;;;4915990;29;19927;-71
2021/10/11 11:04:11;;;;;;;;;;;12.40;99.90;;;;;;4916472;29;19927;-71
2021/10/11 11:07:04;;;;;;;;;;;12.40;99.90;;;;;;4917572;29;19927;-71
2021/10/11 11:09:53;;;;;;;;;;;12.50;99.90;;;;;;4910528;28;19951;-70
2021/10/11 11:12:43;;;;;;;;;;;12.50;99.90;;;;;;4913843;29;19927;-70
2021/10/11 11:15:34;;;;;;;;;;;12.60;99.90;;;;;;4911210;29;20253;-70
2021/10/11 11:18:23;;;;;;;;;;;12.60;99.90;;;;;;4918790;29;19931;-71
2021/10/11 11:21:13;;;;;;;;;;;12.70;99.90;;;;;;4919374;29;20388;-70
2021/10/11 11:24:06;;;;;;;;;;;12.80;99.90;;;;;;4919036;29;20022;-71
2021/10/11 11:26:55;;;;;;;;;;;12.80;99.90;;;;;;4920136;29;19927;-71
2021/10/11 11:29:53;;;;;;;;;;;12.90;99.90;;;;;;4902959;29;19927;-70
2021/10/11 11:32:46;;;;;;;;;;;12.90;99.90;;;;;;4910269;29;19931;-70
2021/10/11 11:35:37;;;;;;;;;;;12.90;99.90;;;;;;4915485;29;19931;-70
2021/10/11 11:38:26;;;;;;;;;;;13.00;99.90;;;;;;4915850;29;19979;-70
2021/10/11 11:41:17;;;;;;;;;;;13.00;99.90;;;;;;4913622;29;19927;-71
2021/10/11 11:44:06;;;;;;;;;;;13.10;99.90;;;;;;4917253;29;19934;-71
2021/10/11 11:47:02;;;;;;;;;;;13.10;99.90;;;;;;4912284;29;20025;-71
2021/10/11 11:49:52;;;;;;;;;;;13.20;99.90;;;;;;4920502;29;20376;-71
2021/10/11 11:52:40;;;;;;;;;;;13.20;99.90;;;;;;4913869;29;20310;-69
2021/10/11 11:55:29;;;;;;;;;;;13.30;99.90;;;;;;4916652;29;19934;-70
2021/10/11 11:58:23;;;;;;;;;;;13.30;99.90;;;;;;4917815;29;19982;-70
2021/10/11 12:01:15;;;;;;;;;;;13.40;99.90;;;;;;4906800;29;20021;-70
2021/10/11 12:04:09;;;;;;;;;;;13.40;99.90;;;;;;4921160;29;19962;-69
2021/10/11 12:07:04;;;;;;;;;;;13.50;99.90;;;;;;4911152;29;20312;-71
2021/10/11 12:09:54;;;;;;;;;;;13.50;99.90;;;;;;4911171;29;19927;-71
2021/10/11 12:12:42;;;;;;;;;;;13.50;99.90;;;;;;4914230;29;20371;-71
2021/10/11 12:15:32;;;;;;;;;;;13.50;99.90;;;;;;4913284;29;19995;-70
2021/10/11 12:18:21;;;;;;;;;;;13.50;99.90;;;;;;4918588;29;20269;-70
2021/10/11 12:21:20;;;;;;;;;;;13.60;99.90;;;;;;4918129;29;19927;-70
2021/10/11 12:24:17;;;;;;;;;;;13.60;99.70;;;;;;4919295;29;19927;-69
2021/10/11 12:27:07;;;;;;;;;;;13.60;99.50;;;;;;4916218;29;19927;-71
2021/10/11 12:30:01;;;;;;;;;;;13.70;99.70;;;;;;4914646;29;19927;-71
2021/10/11 12:33:02;;;;;;;;;;;13.70;99.50;;;;;;4909866;29;19939;-71
2021/10/11 12:36:00;;;;;;;;;;;13.80;99.40;;;;;;4931005;29;19970;-71
2021/10/11 12:38:49;;;;;;;;;;;13.80;99.10;;;;;;4935111;29;19931;-70
2021/10/11 12:41:43;;;;;;;;;;;13.80;99.20;;;;;;4918864;29;19933;-70
2021/10/11 12:44:36;;;;;;;;;;;13.80;99.30;;;;;;4937549;29;20025;-71
2021/10/11 12:47:27;;;;;;;;;;;13.90;99.30;;;;;;4931539;29;19926;-70
2021/10/11 12:50:18;;;;;;;;;;;13.90;99.00;;;;;;4939832;29;20272;-70
2021/10/11 12:53:09;;;;;;;;;;;13.90;99.00;;;;;;4928186;29;19927;-70
2021/10/11 12:56:00;;;;;;;;;;;14.00;98.70;;;;;;4936676;29;19931;-71
2021/10/11 12:58:56;;;;;;;;;;;14.00;98.70;;;;;;4940837;29;19954;-71
2021/10/11 13:01:48;;;;;;;;;;;14.00;98.90;;;;;;4937197;29;20367;-70
2021/10/11 13:04:37;;;;;;;;;;;14.00;99.10;;;;;;4937479;29;20025;-70
2021/10/11 13:07:27;;;;;;;;;;;14.10;99.20;;;;;;4933196;29;20014;-70
2021/10/11 13:10:16;;;;;;;;;;;14.10;99.40;;;;;;4935210;29;19927;-70
2021/10/11 13:13:04;;;;;;;;;;;14.20;99.30;;;;;;4934479;28;19933;-70
2021/10/11 13:15:53;;;;;;;;;;;14.20;99.30;;;;;;4934493;29;20290;-70
2021/10/11 13:18:42;;;;;;;;;;;14.20;99.20;;;;;;4926726;29;19927;-70
2021/10/11 13:21:32;;;;;;;;;;;14.20;99.20;;;;;;4940303;29;19937;-70
2021/10/11 13:24:23;;;;;;;;;;;14.20;99.30;;;;;;4942457;29;19983;-70
2021/10/11 13:27:12;;;;;;;;;;;14.20;99.30;;;;;;4937567;29;20315;-71
2021/10/11 13:30:45;;;;;;;;;;;14.20;99.50;;;;;;4936476;29;19930;-70
2021/10/11 14:30:08;;;;;;;;;;;13.60;99.90;;;;;;4931012;29;20006;-68
2021/10/11 15:58:36;;;;;;;;;;;12.50;99.90;;;;;;4937702;29;19966;-69
2021/10/11 16:01:31;;;;;;;;;;;12.50;99.90;;;;;;4928497;29;19927;-71
2021/10/11 16:04:19;;;;;;;;;;;12.50;99.90;;;;;;4939173;28;19930;-69
2021/10/11 16:07:08;;;;;;;;;;;12.50;99.90;;;;;;4938621;29;19934;-71
2021/10/11 16:09:57;;;;;;;;;;;12.40;99.90;;;;;;4938761;29;19927;-70
2021/10/11 16:12:46;;;;;;;;;;;12.40;99.90;;;;;;4933618;29;19934;-68
2021/10/11 16:15:34;;;;;;;;;;;12.40;99.90;;;;;;4933846;29;20017;-71
2021/10/11 16:18:44;;;;;;;;;;;12.40;99.90;;;;;;4936332;28;20299;-71
2021/10/11 16:21:34;;;;;;;;;;;12.30;99.90;;;;;;4921936;29;19990;-71
2021/10/11 16:24:23;;;;;;;;;;;12.30;99.90;;;;;;4938377;28;20007;-69
2021/10/11 16:27:12;;;;;;;;;;;12.30;99.90;;;;;;4922058;29;20971;-70
2021/10/11 16:30:01;;;;;;;;;;;12.20;99.90;;;;;;4928742;29;19959;-70
2021/10/11 16:32:51;;;;;;;;;;;12.20;99.90;;;;;;4935155;29;20017;-70
2021/10/11 16:35:41;;;;;;;;;;;12.20;99.90;;;;;;4938969;28;19927;-70
2021/10/11 16:38:30;;;;;;;;;;;12.10;99.90;;;;;;4931723;29;19933;-67
2021/10/11 16:41:19;;;;;;;;;;;12.10;99.90;;;;;;4937369;29;19954;-67
2021/10/11 16:44:10;;;;;;;;;;;12.10;99.90;;;;;;4934925;29;19926;-67
2021/10/11 16:46:59;;;;;;;;;;;12.00;99.90;;;;;;4921353;29;19937;-69
2021/10/11 16:49:48;;;;;;;;;;;12.00;99.90;;;;;;4932327;29;19926;-67
2021/10/11 16:52:38;;;;;;;;;;;12.00;99.90;;;;;;4931179;29;19927;-67
2021/10/11 16:55:28;;;;;;;;;;;12.00;99.90;;;;;;4932441;28;20264;-68
2021/10/11 16:58:17;;;;;;;;;;;12.00;99.90;;;;;;4938025;29;19966;-70
2021/10/11 17:01:08;;;;;;;;;;;12.00;99.90;;;;;;4925442;28;19934;-69
2021/10/11 17:03:57;;;;;;;;;;;12.00;99.90;;;;;;4926700;28;19927;-69
2021/10/11 17:06:46;;;;;;;;;;;12.00;99.90;;;;;;4933949;28;19974;-69
2021/10/11 17:09:37;;;;;;;;;;;12.00;99.90;;;;;;4919621;29;19986;-70
2021/10/11 17:12:27;;;;;;;;;;;12.00;99.90;;;;;;4940649;28;19943;-68
2021/10/11 17:15:18;;;;;;;;;;;12.00;99.90;;;;;;4921969;28;20021;-68
2021/10/11 17:18:27;;;;;;;;;;;12.10;99.90;;;;;;4938084;29;19927;-68
2021/10/11 17:21:16;;;;;;;;;;;12.00;99.90;;;;;;4932644;29;19926;-68
2021/10/11 17:24:06;;;;;;;;;;;12.10;99.90;;;;;;4940153;28;19938;-68
2021/10/11 17:26:57;;;;;;;;;;;12.10;99.90;;;;;;4939803;29;19937;-68
2021/10/11 17:29:46;;;;;;;;;;;12.10;99.90;;;;;;4943395;28;20442;-68
2021/10/11 17:32:36;;;;;;;;;;;12.10;99.90;;;;;;4933147;28;19926;-68
2021/10/11 17:35:27;;;;;;;;;;;12.10;99.90;;;;;;4913839;29;19934;-68
2021/10/11 17:38:16;;;;;;;;;;;12.10;99.90;;;;;;4937339;29;20078;-68
2021/10/11 17:44:20;;;;;;;;;;;12.10;99.90;;;;;;4912219;29;20320;-68
2021/10/11 17:47:12;;;;;;;;;;;12.10;99.90;;;;;;4908382;29;19938;-67
2021/10/11 17:50:02;;;;;;;;;;;12.10;99.90;;;;;;4919555;29;19935;-67
2021/10/11 17:52:57;;;;;;;;;;;12.10;99.90;;;;;;4916589;29;20291;-67
2021/10/11 17:55:45;;;;;;;;;;;12.10;99.90;;;;;;4927118;29;20006;-67
2021/10/11 17:58:34;;;;;;;;;;;12.20;99.90;;;;;;4917827;29;19959;-67
2021/10/11 18:01:24;;;;;;;;;;;12.20;99.90;;;;;;4912310;28;19951;-67
2021/10/11 18:04:19;;;;;;;;;;;12.20;99.90;;;;;;4920084;29;20272;-68
2021/10/11 18:07:08;;;;;;;;;;;12.20;99.90;;;;;;4921022;29;19931;-68
2021/10/11 18:10:01;;;;;;;;;;;12.20;99.90;;;;;;4919474;29;20037;-68
2021/10/11 18:12:50;;;;;;;;;;;12.10;99.90;;;;;;4914526;29;19949;-68
2021/10/11 18:15:39;;;;;;;;;;;12.10;99.90;;;;;;4904224;29;19994;-68
2021/10/11 18:18:30;;;;;;;;;;;12.10;99.90;;;;;;4917804;29;19927;-67
2021/10/11 18:21:18;;;;;;;;;;;12.10;99.90;;;;;;4915218;29;20003;-70
2021/10/11 18:24:08;;;;;;;;;;;12.00;99.90;;;;;;4914740;29;20394;-70
2021/10/11 18:26:57;;;;;;;;;;;12.00;99.90;;;;;;4911442;29;19927;-70
2021/10/11 18:29:46;;;;;;;;;;;12.00;99.90;;;;;;4920861;29;19933;-70
2021/10/11 18:32:36;;;;;;;;;;;11.90;99.90;;;;;;4920190;29;19931;-70
2021/10/11 18:35:27;;;;;;;;;;;11.90;99.90;;;;;;4917630;29;20015;-71
2021/10/11 18:38:16;;;;;;;;;;;11.90;99.90;;;;;;4916544;29;19928;-66
2021/10/11 18:41:08;;;;;;;;;;;11.90;99.90;;;;;;4924089;28;19935;-66
2021/10/11 18:43:57;;;;;;;;;;;11.80;99.90;;;;;;4919442;29;20379;-70
2021/10/11 18:46:46;;;;;;;;;;;11.80;99.90;;;;;;4925349;28;19950;-70
2021/10/11 18:49:35;;;;;;;;;;;11.80;99.90;;;;;;4916049;29;19928;-71
2021/10/11 18:52:25;;;;;;;;;;;11.80;99.90;;;;;;4918955;29;20025;-70
2021/10/11 18:55:33;;;;;;;;;;;11.70;99.90;;;;;;4906259;29;20030;-71
2021/10/11 18:58:21;;;;;;;;;;;11.70;99.90;;;;;;4915570;29;19934;-70
2021/10/11 19:01:10;;;;;;;;;;;11.70;99.90;;;;;;4911903;29;19934;-70
2021/10/11 19:04:19;;;;;;;;;;;11.70;99.90;;;;;;4903600;29;19927;-68
2021/10/11 19:07:09;;;;;;;;;;;11.70;99.90;;;;;;4911634;29;20256;-71
2021/10/11 19:09:59;;;;;;;;;;;11.70;99.90;;;;;;4923709;29;19943;-70
2021/10/11 19:12:50;;;;;;;;;;;11.60;99.90;;;;;;4902022;29;19974;-70
2021/10/11 19:15:38;;;;;;;;;;;11.60;99.90;;;;;;4911241;28;19928;-70
2021/10/11 19:18:28;;;;;;;;;;;11.60;99.90;;;;;;4903325;29;19927;-70
2021/10/11 19:21:17;;;;;;;;;;;11.60;99.90;;;;;;4910970;29;19939;-70
2021/10/11 19:24:08;;;;;;;;;;;11.60;99.90;;;;;;4908552;29;19934;-72